Lyle, Washington
Current Conditions -  °F | °C
As of 9:53 PM on Saturday 25 Oct 2014 (Local Time) from KDLS Reporting Station
Overcast Overcast  
Wind Chill: 55°   Ceiling: 10000
Heat Index: 55°   Visibility: 10mi
Dew Point: 44°   Wind: 16mph
Humidity: 67%   Direction: 260°W
Pressure: 29.76"   Gusts: NA
Location:  45.7°N, 121.28°W
Report Text: KDLS 260453Z AUTO 26014KT 10SM FEW050 SCT070 OVC100 13/07 A2976 RMK AO2 PK WND 24026/0416 SLP078 T01280067
Loading
Personal Weather Stations






























Interactive Weather Map
Tropical Storm Tracking
New forecast layout! Learn more

10-Day Weather Forecast

Advertisements
Track Severe Weather on mobile